ZPPP

Kunming Wujiaba International Airport

Kunming, China
TAF ZPPP 150709Z 1512/1612 04004MPS 9999 SCT026 TX26/1608Z TN15/1523Z
Issued Valid From Valid To
Aug-15 @ 07:09 UTC
(5 hours ago)
Aug-15 @ 12:00 UTC
(39 minutes ago)
Aug-16 @ 12:00 UTC
(in 23 hours)
Aug-15 @ 12:00 to Aug-16 @ 12:00
TAF ZPPP 150709Z 1512/1612 04004MPS 9999 SCT026 TX26/1608Z TN15/1523Z
Wind Visibility Clouds
40° at 8 knots 10,000+ meters
  • Scattered at 2,600' AGL
TAF ZPPP 150709Z 1512/1612 04004MPS 9999 SCT026 TX26/1608Z TN15/1523Z
Issued Aug-15 @ 07:09 UTC
(5 hours ago)
Valid From Aug-15 @ 12:00 UTC
(39 minutes ago)
Valid To Aug-16 @ 12:00 UTC
(in 23 hours)
Aug-15 @ 12:00 - Aug-16 @ 12:00
Wind Visibility
40° at 8 knots 10,000+ meters
Clouds
  • Scattered at 2,600' AGL